Terminal Aerodrome Forecast
Issued by NWS

Home | Current Version | Previous Version | Text Only | Print | Product List | Glossary On
Versions: 1 2 3 4 5 6 7 8 9 10 11 12 13 14 15 16 17 18 19 20 21 22
409
FTUS43 KLSX 210520
TAFCPS
TAF
KCPS 210520Z 2106/2206 21005KT P6SM SHRA VCTS OVC060CB
     FM210800 VRB04KT P6SM SHRA OVC090
     FM211200 VRB03KT P6SM OVC060
     FM212100 25005KT P6SM VCSH BKN080
     FM212300 VRB04KT P6SM SCT180=

USA.gov is the U.S. government's official web portal to all federal, state and local government web resources and services.